createdAt,value
2023-01-20T00:01:54.222Z,25.17
2023-01-20T00:04:22.164Z,22.83
2023-01-20T00:06:50.042Z,22.73
2023-01-20T00:09:19.075Z,21.45
2023-01-20T00:11:48.610Z,20.67
2023-01-20T00:14:16.756Z,22.15
2023-01-20T00:16:44.728Z,19.85
2023-01-20T00:19:14.538Z,19.70
2023-01-20T00:21:42.856Z,19.65
2023-01-20T00:24:10.730Z,19.20
2023-01-20T00:26:38.582Z,18.42
2023-01-20T00:29:07.899Z,19.75
2023-01-20T00:31:36.178Z,17.25
2023-01-20T00:34:05.175Z,18.75
2023-01-20T00:36:33.965Z,17.92
2023-01-20T00:39:02.688Z,18.13
2023-01-20T00:41:30.800Z,17.25
2023-01-20T11:41:44.477Z,2.60
2023-01-20T11:44:21.357Z,2.10
2023-01-20T11:46:49.279Z,1.92
2023-01-20T11:49:19.864Z,1.92
2023-01-20T11:51:50.592Z,1.92
2023-01-20T11:54:20.401Z,1.98
2023-01-20T11:56:53.035Z,1.70
2023-01-20T11:59:25.166Z,1.30
2023-01-20T12:01:57.983Z,1.45
2023-01-20T12:04:43.473Z,1.77
2023-01-20T12:07:14.944Z,1.40
2023-01-20T12:09:45.644Z,1.25
2023-01-20T12:12:21.788Z,1.13
2023-01-20T12:14:55.690Z,1.10
2023-01-20T12:17:41.643Z,1.02
2023-01-20T12:20:20.180Z,1.25
2023-01-20T12:23:00.361Z,1.40
2023-01-20T12:25:31.006Z,1.13
2023-01-20T12:28:06.582Z,1.90
2023-01-20T12:30:50.760Z,1.98
2023-01-20T12:33:22.697Z,2.20
2023-01-20T16:23:37.745Z,2.30
2023-01-20T16:26:17.598Z,2.42
2023-01-20T16:28:45.469Z,4.32
2023-01-20T16:31:14.373Z,4.32
2023-01-20T16:33:42.428Z,5.57
2023-01-20T16:36:12.835Z,5.65
2023-01-20T16:38:42.085Z,5.28
2023-01-20T16:41:15.269Z,5.22
2023-01-20T16:43:43.761Z,6.32
2023-01-20T16:46:14.635Z,7.97
2023-01-20T16:48:42.698Z,7.03
2023-01-20T16:51:13.475Z,7.40
2023-01-20T16:53:43.042Z,7.07
2023-01-20T16:56:17.670Z,6.43
2023-01-20T16:58:48.143Z,6.00
2023-01-20T17:01:21.031Z,6.35
2023-01-20T17:03:49.554Z,6.97
2023-01-20T17:06:19.823Z,7.32
2023-01-20T17:08:51.250Z,8.15
2023-01-20T17:11:19.917Z,8.63
2023-01-20T17:13:47.810Z,11.80
2023-01-20T17:16:16.314Z,12.30
2023-01-20T17:18:45.648Z,12.38
2023-01-20T17:21:14.488Z,13.45
2023-01-20T17:23:42.706Z,12.18
2023-01-20T17:26:12.001Z,11.90
2023-01-20T17:28:39.849Z,13.52
2023-01-20T17:31:08.400Z,15.43
2023-01-20T17:33:36.288Z,14.75
2023-01-20T17:36:06.493Z,15.90
2023-01-20T17:38:35.736Z,14.68
2023-01-20T17:41:04.699Z,16.75
2023-01-20T17:43:34.953Z,15.70
2023-01-20T17:46:03.160Z,16.48
2023-01-20T17:48:31.049Z,16.67
2023-01-20T17:50:59.303Z,15.07
2023-01-20T17:53:27.604Z,15.75
2023-01-20T17:56:11.014Z,15.55
2023-01-20T17:58:42.425Z,15.67
2023-01-20T18:01:12.340Z,16.30
2023-01-20T18:03:42.794Z,15.43
2023-01-20T18:06:12.208Z,16.20
2023-01-20T18:08:40.322Z,17.17
2023-01-20T18:11:10.349Z,16.10
2023-01-20T18:13:38.236Z,16.27
2023-01-20T18:16:10.755Z,21.90
2023-01-20T18:18:39.142Z,19.88
2023-01-20T18:21:11.756Z,18.15
2023-01-20T18:23:40.174Z,21.23
2023-01-20T18:26:09.177Z,21.40
2023-01-20T18:28:37.497Z,22.80
2023-01-20T18:31:08.940Z,22.58
2023-01-20T18:33:39.920Z,22.13
2023-01-20T18:36:10.059Z,23.42
2023-01-20T18:38:42.979Z,23.75
2023-01-20T18:41:11.499Z,23.63
2023-01-20T18:43:39.953Z,25.23
2023-01-20T18:46:10.679Z,24.20
2023-01-20T18:48:39.085Z,23.40
2023-01-20T18:51:07.939Z,22.95
2023-01-20T18:53:36.119Z,24.83
2023-01-20T18:56:05.256Z,24.40
2023-01-20T18:58:34.695Z,22.45
2023-01-20T19:01:07.257Z,21.83
2023-01-20T19:03:37.364Z,22.55
2023-01-20T19:06:06.060Z,22.65
2023-01-20T19:08:34.139Z,23.42
2023-01-20T19:11:02.511Z,22.58
2023-01-20T19:13:30.667Z,21.00
2023-01-20T19:15:59.188Z,21.50
2023-01-20T19:18:27.124Z,21.23
2023-01-20T19:20:56.360Z,21.73
2023-01-20T19:23:24.240Z,22.15
2023-01-20T19:26:01.080Z,25.15
2023-01-20T19:28:28.998Z,24.20
2023-01-20T19:30:57.219Z,22.17
2023-01-20T19:33:25.137Z,21.42
2023-01-20T19:35:53.013Z,19.95
2023-01-20T19:38:22.272Z,20.70
2023-01-20T19:40:50.148Z,21.33
2023-01-20T19:43:18.031Z,18.77
2023-01-20T19:45:46.376Z,19.63
2023-01-20T19:48:14.648Z,19.30
2023-01-20T19:50:42.992Z,20.40
2023-01-20T19:53:10.975Z,21.13
2023-01-20T19:55:40.212Z,20.10
2023-01-20T19:58:34.896Z,20.65
2023-01-20T20:01:10.335Z,19.63
2023-01-20T20:03:38.654Z,19.90
2023-01-20T20:06:08.078Z,18.00
2023-01-20T20:08:36.719Z,19.52
2023-01-20T20:11:06.093Z,20.38
2023-01-20T20:13:33.944Z,19.90
2023-01-20T20:16:02.663Z,19.85
2023-01-20T20:18:30.614Z,17.92
2023-01-20T20:20:58.629Z,16.88
2023-01-20T20:23:27.063Z,19.08
2023-01-20T20:25:56.526Z,16.10
2023-01-20T20:28:26.419Z,15.32
2023-01-20T20:30:55.364Z,18.58
2023-01-20T20:33:23.586Z,15.38
2023-01-20T20:35:51.565Z,14.50
2023-01-20T20:38:19.464Z,16.25
2023-01-20T20:40:47.362Z,15.60
2023-01-20T20:43:15.206Z,14.43
2023-01-20T20:45:44.426Z,15.10
2023-01-20T20:48:12.282Z,15.18
2023-01-20T20:50:40.172Z,14.63
2023-01-20T20:53:08.917Z,13.98
2023-01-20T20:55:40.639Z,17.05
2023-01-20T20:58:09.252Z,15.75
2023-01-20T21:00:37.386Z,16.88
2023-01-20T21:03:07.727Z,14.40
2023-01-20T21:05:35.726Z,14.60
2023-01-20T21:08:04.713Z,14.05
2023-01-20T21:10:32.650Z,14.15
2023-01-20T21:13:00.600Z,13.50
2023-01-20T21:15:30.388Z,13.32
2023-01-20T21:17:58.385Z,12.88
2023-01-20T21:20:28.829Z,13.57
2023-01-20T21:22:56.719Z,15.82
2023-01-20T21:25:24.705Z,13.43
2023-01-20T21:27:52.650Z,14.80
2023-01-20T21:30:21.305Z,15.65
2023-01-20T21:32:49.132Z,14.75
2023-01-20T21:35:17.146Z,15.55
2023-01-20T21:37:46.379Z,16.75
2023-01-20T21:40:14.755Z,16.58
2023-01-20T21:42:42.914Z,16.77
2023-01-20T21:45:10.726Z,19.42
2023-01-20T21:47:38.600Z,18.52
2023-01-20T21:50:24.931Z,19.08
2023-01-20T21:52:54.140Z,16.08
2023-01-20T21:55:24.042Z,18.67
2023-01-20T21:57:52.213Z,18.65
2023-01-20T22:00:20.679Z,20.70
2023-01-20T22:02:48.976Z,18.35
2023-01-20T22:05:18.125Z,19.67
2023-01-20T22:07:47.826Z,19.98
2023-01-20T22:10:17.994Z,19.88
2023-01-20T22:12:45.967Z,19.88
2023-01-20T22:15:13.827Z,17.88
2023-01-20T22:17:42.849Z,19.10
2023-01-20T22:20:12.049Z,19.55
2023-01-20T22:22:39.931Z,21.40
2023-01-20T22:25:08.275Z,21.55
2023-01-20T22:27:37.520Z,20.08
2023-01-20T22:30:06.061Z,22.05
2023-01-20T22:32:33.971Z,17.55
2023-01-20T22:35:01.816Z,18.33
2023-01-20T22:37:32.283Z,19.80
2023-01-20T22:40:01.960Z,20.02
2023-01-20T22:42:29.825Z,19.58
2023-01-20T22:44:59.024Z,19.13
2023-01-20T22:47:27.072Z,19.90
2023-01-20T22:49:56.685Z,16.40
2023-01-20T22:52:24.688Z,18.40
2023-01-20T22:54:52.583Z,20.60
2023-01-20T22:57:20.446Z,20.00
2023-01-20T22:59:48.303Z,18.77
2023-01-20T23:02:17.565Z,19.95
2023-01-20T23:04:45.449Z,19.30
2023-01-20T23:07:14.272Z,19.88
2023-01-20T23:09:42.147Z,18.30
2023-01-20T23:12:09.986Z,20.17
2023-01-20T23:14:58.174Z,20.73
2023-01-20T23:17:27.947Z,19.65
2023-01-20T23:19:55.883Z,20.23
2023-01-20T23:22:25.131Z,21.15
2023-01-20T23:24:52.945Z,21.55
2023-01-20T23:27:20.830Z,22.15
2023-01-20T23:29:49.070Z,19.23
2023-01-20T23:32:16.966Z,20.33
2023-01-20T23:34:46.174Z,17.50
2023-01-20T23:37:14.197Z,17.20
2023-01-20T23:39:42.075Z,21.75
2023-01-20T23:42:09.934Z,21.98
2023-01-20T23:44:37.843Z,21.50
2023-01-20T23:47:07.449Z,18.85
2023-01-20T23:49:35.328Z,18.67
2023-01-20T23:52:04.807Z,20.73
2023-01-20T23:54:32.665Z,18.45
2023-01-20T23:57:00.583Z,21.83
2023-01-20T23:59:28.456Z,23.77
